Weather at E. Castellanos-Villacastín Airport

Public forecast

Using degrees Celsius for public forecast. Weather courtesy of forecast.io.

Closest aviation weather report (METAR) to E. Castellanos-Villacastín Airport

Closest report is Getafe Air Base, 44.7 nm (82.9 km) SE. Retrieved 2021/04/11 12:30 UTC (16 minutes ago):

LEGT 111230Z 24006KT 190V280 9999 FEW028 SCT035CB 17/10 Q1013

Closest aviation forecast (TAF) to E. Castellanos-Villacastín Airport

Closest forecast is Base Aérea de Colmenar Viejo, 32.2 nm (59.7 km) E. Retrieved 2021/04/11 12:00 UTC (46 minutes ago):

TAF LECV 111100Z 1112/1212 VRB04KT 9999 SCT020 TX15/1116Z TN01/1206Z TEMPO 1112/1119 3000 RA SHRA BKN008 SCT015TCU PROB40 TEMPO 1112/1118 VRB15G25KT 2000 TSRA SCT030CB BECMG 1116/1118 03010KT